createdAt,value
2022-08-17T00:01:35.767Z,101045.47
2022-08-17T00:04:19.124Z,101047.81
2022-08-17T00:06:45.892Z,101039.81
2022-08-17T00:09:18.266Z,101039.59
2022-08-17T00:12:41.996Z,101037.72
2022-08-17T00:14:36.074Z,101046.06
2022-08-17T00:17:04.647Z,101037.28
2022-08-17T00:19:32.670Z,101035.38
2022-08-17T00:22:35.241Z,101034.16
2022-08-17T00:24:47.462Z,101034.84
2022-08-17T00:27:13.963Z,101034.16
2022-08-17T00:29:40.574Z,101023.97
2022-08-17T00:33:12.481Z,101024.41
2022-08-17T00:34:53.736Z,101025.91
2022-08-17T00:37:20.444Z,101024.22
2022-08-17T00:39:47.043Z,101017.63
2022-08-17T00:42:16.328Z,101020.50
2022-08-17T00:44:42.903Z,101020.50
2022-08-17T00:47:09.478Z,101022.00
2022-08-17T00:49:35.966Z,101022.41
2022-08-17T00:52:11.708Z,101015.25
2022-08-17T00:54:42.484Z,101019.63
2022-08-17T00:57:14.100Z,101011.72
2022-08-17T01:00:02.384Z,100995.00
2022-08-17T01:02:34.905Z,100992.78
2022-08-17T01:05:09.508Z,100992.72
2022-08-17T01:07:37.821Z,101000.94
2022-08-17T01:10:08.909Z,101002.81
2022-08-17T01:12:56.642Z,101015.78
2022-08-17T01:15:23.527Z,101000.84
2022-08-17T01:17:50.308Z,101002.69
2022-08-17T01:20:16.909Z,100999.66
2022-08-17T01:22:43.488Z,100989.50
2022-08-17T01:25:12.623Z,100986.47
2022-08-17T01:27:39.135Z,100987.31
2022-08-17T01:30:56.628Z,100991.59
2022-08-17T01:32:56.780Z,100988.44
2022-08-17T01:35:23.295Z,100990.75
2022-08-17T01:37:50.106Z,100996.28
2022-08-17T01:40:28.965Z,100992.75
2022-08-17T01:42:58.924Z,100989.56
2022-08-17T01:45:33.030Z,101002.50
2022-08-17T01:48:00.503Z,100990.66
2022-08-17T01:50:30.193Z,100995.44
2022-08-17T01:53:01.939Z,100995.81
2022-08-17T01:55:54.059Z,101002.00
2022-08-17T01:58:21.438Z,100990.59
2022-08-17T02:01:00.777Z,100988.63
2022-08-17T02:03:28.726Z,100989.47
2022-08-17T02:05:55.686Z,100985.00
2022-08-17T02:08:39.245Z,100989.06
2022-08-17T02:11:14.658Z,100993.28
2022-08-17T02:13:42.107Z,100998.78
2022-08-17T02:16:08.619Z,101025.34
2022-08-17T02:18:35.120Z,101023.22
2022-08-17T02:21:02.138Z,101024.50
2022-08-17T02:23:32.354Z,101036.88
2022-08-17T02:26:00.625Z,101035.25
2022-08-17T02:28:28.497Z,101025.28
2022-08-17T02:31:01.866Z,101011.81
2022-08-17T02:33:41.598Z,101017.22
2022-08-17T02:36:12.203Z,101014.78
2022-08-17T02:38:40.586Z,101017.16
2022-08-17T02:41:08.042Z,101009.72
2022-08-17T02:43:34.927Z,101003.00
2022-08-17T02:46:01.464Z,101014.47
2022-08-17T02:48:31.427Z,101008.63
2022-08-17T02:50:59.277Z,101014.09
2022-08-17T02:53:26.084Z,101008.53
2022-08-17T02:55:53.253Z,101015.19
2022-08-17T02:58:35.075Z,101004.22
2022-08-17T03:01:06.661Z,100995.94
2022-08-17T03:03:34.660Z,100992.47
2022-08-17T03:06:01.542Z,100995.69
2022-08-17T03:08:28.883Z,100985.53
2022-08-17T03:10:55.606Z,100994.91
2022-08-17T03:13:22.991Z,100989.34
2022-08-17T03:15:50.541Z,100989.03
2022-08-17T03:18:24.513Z,100992.22
2022-08-17T03:20:57.626Z,100997.31
2022-08-17T03:23:25.406Z,100991.38
2022-08-17T03:25:53.787Z,100990.59
2022-08-17T03:28:21.779Z,100987.16
2022-08-17T03:30:48.988Z,100980.50
2022-08-17T03:33:16.213Z,100977.72
2022-08-17T03:35:43.325Z,100971.00
2022-08-17T03:38:11.938Z,100978.63
2022-08-17T03:40:56.940Z,100978.22
2022-08-17T03:43:28.094Z,100985.44
2022-08-17T03:46:26.892Z,100994.00
2022-08-17T03:49:13.995Z,100999.16
2022-08-17T03:51:59.207Z,101002.72
2022-08-17T03:54:44.048Z,101021.28
2022-08-17T03:57:11.713Z,101033.91
2022-08-17T03:59:38.854Z,101033.84
2022-08-17T04:02:13.445Z,101038.63
2022-08-17T04:04:40.273Z,101027.22
2022-08-17T04:07:07.725Z,101026.91
2022-08-17T04:09:34.650Z,101030.84
2022-08-17T04:12:04.799Z,101030.38
2022-08-17T04:14:37.856Z,101027.97
2022-08-17T04:17:19.587Z,101026.41
2022-08-17T04:19:46.577Z,101033.13
2022-08-17T04:22:30.132Z,101026.47
2022-08-17T04:24:59.753Z,101027.25
2022-08-17T04:27:26.276Z,101019.44
2022-08-17T04:29:54.714Z,101021.03
2022-08-17T04:33:05.011Z,101029.81
2022-08-17T04:35:10.014Z,101031.34
2022-08-17T04:37:36.503Z,101026.25
2022-08-17T04:40:22.875Z,101026.63
2022-08-17T04:43:10.278Z,101023.16
2022-08-17T04:45:54.995Z,101017.56
2022-08-17T04:48:35.255Z,101017.22
2022-08-17T04:51:05.618Z,101024.72
2022-08-17T04:53:32.121Z,101024.72
2022-08-17T04:55:59.120Z,101018.47
2022-08-17T04:58:25.641Z,101017.34
2022-08-17T05:00:52.740Z,101021.31
2022-08-17T05:03:19.396Z,101030.72
2022-08-17T05:05:52.118Z,101026.34
2022-08-17T05:08:20.259Z,101028.66
2022-08-17T05:10:48.353Z,101028.66
2022-08-17T05:13:18.115Z,101033.53
2022-08-17T05:15:47.766Z,101034.28
2022-08-17T05:18:15.525Z,101029.16
2022-08-17T05:20:43.307Z,101028.41
2022-08-17T05:23:13.933Z,101033.53
2022-08-17T05:25:47.393Z,101029.22
2022-08-17T05:28:16.021Z,101032.34
2022-08-17T05:30:43.758Z,101030.88
2022-08-17T05:33:14.575Z,101027.00
2022-08-17T05:35:44.395Z,101025.06
2022-08-17T05:38:10.978Z,101015.19
2022-08-17T05:40:38.385Z,101018.75
2022-08-17T05:43:09.049Z,101018.41
2022-08-17T05:45:55.245Z,101025.84
2022-08-17T05:48:39.612Z,101015.19
2022-08-17T05:51:15.493Z,101012.00
2022-08-17T05:53:56.978Z,101023.81
2022-08-17T05:57:01.004Z,101020.28
2022-08-17T05:59:46.350Z,101032.81
2022-08-17T06:02:31.356Z,101028.84
2022-08-17T06:05:16.388Z,101043.00
2022-08-17T06:07:57.678Z,101041.81
2022-08-17T06:10:30.971Z,101029.22
2022-08-17T06:13:18.819Z,101039.53
2022-08-17T06:16:00.207Z,101051.34
2022-08-17T06:18:31.385Z,101048.50
2022-08-17T06:21:02.880Z,101041.00
2022-08-17T06:24:05.360Z,101045.97
2022-08-17T06:26:38.541Z,101051.78
2022-08-17T06:29:28.947Z,101053.34
2022-08-17T06:31:55.439Z,101054.91
2022-08-17T06:34:21.949Z,101051.78
2022-08-17T06:37:06.197Z,101065.03
2022-08-17T06:39:57.274Z,101058.66
2022-08-17T06:42:55.124Z,101069.69
2022-08-17T06:46:16.983Z,101069.63
2022-08-17T06:48:49.122Z,101057.09
2022-08-17T06:51:22.811Z,101070.19
2022-08-17T06:54:02.427Z,101072.94
2022-08-17T06:56:54.446Z,101059.13
2022-08-17T06:59:30.431Z,101072.09
2022-08-17T07:03:02.681Z,101067.00
2022-08-17T07:05:20.560Z,101070.88
2022-08-17T07:08:03.844Z,101062.19
2022-08-17T07:10:52.707Z,101055.91
2022-08-17T07:13:51.200Z,101069.75
2022-08-17T07:16:42.286Z,101057.88
2022-08-17T07:19:11.013Z,101061.84
2022-08-17T07:22:10.684Z,101061.91
2022-08-17T07:24:58.540Z,101070.91
2022-08-17T07:27:30.683Z,101068.84
2022-08-17T07:30:04.658Z,101079.41
2022-08-17T07:32:41.342Z,101091.19
2022-08-17T07:35:18.543Z,101089.34
2022-08-17T07:38:24.800Z,101084.25
2022-08-17T07:40:57.673Z,101088.56
2022-08-17T07:43:29.529Z,101089.66
2022-08-17T07:46:36.082Z,101087.63
2022-08-17T07:49:07.475Z,101091.59
2022-08-17T07:52:24.807Z,101091.97
2022-08-17T07:54:52.108Z,101091.66
2022-08-17T07:57:29.400Z,101100.81
2022-08-17T07:59:59.465Z,101084.94
2022-08-17T08:02:38.657Z,101085.28
2022-08-17T08:05:12.406Z,101085.78
2022-08-17T08:07:56.841Z,101096.25
2022-08-17T08:10:38.408Z,101097.31
2022-08-17T08:13:24.153Z,101104.69
2022-08-17T08:15:54.790Z,101109.69
2022-08-17T08:18:38.748Z,101112.69
2022-08-17T08:21:21.871Z,101117.56
2022-08-17T08:23:59.233Z,101129.03
2022-08-17T08:26:37.444Z,101128.06
2022-08-17T08:29:41.700Z,101134.22
2022-08-17T08:35:03.613Z,101144.81
2022-08-17T08:37:57.739Z,101145.16
2022-08-17T08:40:36.385Z,101139.75
2022-08-17T08:43:36.335Z,101135.97
2022-08-17T08:46:19.650Z,101134.16
2022-08-17T08:49:11.911Z,101122.88
2022-08-17T08:51:55.671Z,101127.41
2022-08-17T08:54:34.990Z,101126.19
2022-08-17T08:57:25.366Z,101132.50
2022-08-17T09:00:02.037Z,101136.44
2022-08-17T09:02:40.543Z,101139.66
2022-08-17T09:05:14.686Z,101155.91
2022-08-17T09:08:01.190Z,101172.03
2022-08-17T09:10:39.094Z,101210.63
2022-08-17T09:13:39.256Z,101228.22
2022-08-17T09:16:15.940Z,101229.00
2022-08-17T09:19:01.264Z,101224.25
2022-08-17T09:21:52.675Z,101190.16
2022-08-17T09:24:37.269Z,101145.38
2022-08-17T09:27:37.640Z,101121.16
2022-08-17T09:30:10.826Z,101114.97
2022-08-17T09:32:41.461Z,101105.88
2022-08-17T09:35:25.069Z,101094.59
2022-08-17T09:38:16.094Z,101076.50
2022-08-17T09:40:54.467Z,101048.94
2022-08-17T09:43:30.818Z,101045.75
2022-08-17T09:46:20.249Z,101044.13
2022-08-17T09:49:24.611Z,101070.28
2022-08-17T09:52:01.058Z,101076.50
2022-08-17T09:54:39.135Z,101093.09
2022-08-17T09:57:31.808Z,101100.09
2022-08-17T10:00:11.290Z,101104.13
2022-08-17T10:03:03.022Z,101108.03
2022-08-17T10:05:56.735Z,101107.47
2022-08-17T10:08:44.631Z,101110.97
2022-08-17T10:11:48.322Z,101126.63
2022-08-17T10:14:53.657Z,101140.25
2022-08-17T10:17:30.089Z,101142.41
2022-08-17T10:20:15.157Z,101152.44
2022-08-17T10:23:15.612Z,101164.28
2022-08-17T10:26:07.121Z,101174.72
2022-08-17T10:34:25.185Z,101170.91
2022-08-17T10:37:16.654Z,101179.56
2022-08-17T10:39:53.046Z,101176.41
2022-08-17T10:42:48.860Z,101191.09
2022-08-17T10:45:26.375Z,101186.06
2022-08-17T10:48:04.645Z,101193.38
2022-08-17T10:50:50.525Z,101198.06
2022-08-17T10:53:32.446Z,101211.91
2022-08-17T10:56:14.019Z,101229.28
2022-08-17T10:58:58.698Z,101229.91
2022-08-17T11:01:34.522Z,101246.47
2022-08-17T11:04:26.010Z,101252.88
2022-08-17T11:07:29.544Z,101246.72
2022-08-17T11:10:16.971Z,101252.28
2022-08-17T11:13:01.455Z,101242.50
2022-08-17T11:15:31.299Z,101226.34
2022-08-17T11:18:07.627Z,101229.63
2022-08-17T11:20:45.556Z,101232.41
2022-08-17T11:23:30.378Z,101241.13
2022-08-17T11:26:03.968Z,101242.41
2022-08-17T11:28:35.867Z,101238.53
2022-08-17T11:31:09.121Z,101241.69
2022-08-17T11:33:36.620Z,101246.84
2022-08-17T11:36:29.435Z,101244.91
2022-08-17T11:39:02.634Z,101234.75
2022-08-17T11:41:56.531Z,101240.69
2022-08-17T11:45:02.608Z,101238.41
2022-08-17T11:48:23.594Z,101240.09
2022-08-17T11:51:08.735Z,101217.00
2022-08-17T11:53:37.971Z,101210.00
2022-08-17T11:56:30.278Z,101199.41
2022-08-17T11:58:56.823Z,101204.97
2022-08-17T12:01:23.272Z,101213.16
2022-08-17T12:03:55.915Z,101226.56
2022-08-17T12:06:30.437Z,101224.19
2022-08-17T12:09:17.406Z,101216.69
2022-08-17T12:12:11.276Z,101212.00
2022-08-17T12:15:08.257Z,101208.06
2022-08-17T12:17:40.716Z,101204.13
2022-08-17T12:20:22.077Z,101202.19
2022-08-17T12:23:04.016Z,101203.78
2022-08-17T12:25:37.499Z,101206.94
2022-08-17T12:28:19.862Z,101209.22
2022-08-17T12:30:52.016Z,101209.63
2022-08-17T12:33:25.395Z,101201.34
2022-08-17T12:36:05.057Z,101199.78
2022-08-17T12:38:34.772Z,101206.50
2022-08-17T12:41:22.744Z,101212.75
2022-08-17T12:43:58.595Z,101217.84
2022-08-17T12:46:25.129Z,101223.78
2022-08-17T12:48:59.127Z,101216.72
2022-08-17T12:51:25.995Z,101224.16
2022-08-17T12:53:54.872Z,101224.94
2022-08-17T12:56:21.617Z,101237.09
2022-08-17T12:58:54.377Z,101233.59
2022-08-17T13:01:23.346Z,101234.38
2022-08-17T13:03:53.657Z,101232.84
2022-08-17T13:06:30.217Z,101227.75
2022-08-17T13:08:56.905Z,101226.91
2022-08-17T13:11:25.407Z,101224.16
2022-08-17T13:13:56.099Z,101219.81
2022-08-17T13:16:26.864Z,101218.69
2022-08-17T13:18:59.205Z,101219.84
2022-08-17T13:21:30.539Z,101225.28
2022-08-17T13:24:02.691Z,101218.63
2022-08-17T13:26:36.735Z,101222.94
2022-08-17T13:29:28.648Z,101215.78
2022-08-17T13:32:14.018Z,101217.34
2022-08-17T13:35:12.922Z,101217.72
2022-08-17T13:37:57.743Z,101212.94
2022-08-17T13:40:37.246Z,101207.44
2022-08-17T13:43:05.336Z,101208.63
2022-08-17T13:45:43.493Z,101208.22
2022-08-17T13:48:17.065Z,101213.31
2022-08-17T13:50:55.398Z,101206.16
2022-08-17T13:53:25.502Z,101208.97
2022-08-17T13:55:56.095Z,101206.97
2022-08-17T13:58:26.643Z,101202.94
2022-08-17T14:00:54.335Z,101204.13
2022-08-17T14:03:20.996Z,101194.34
2022-08-17T14:05:50.177Z,101197.50
2022-08-17T14:08:20.676Z,101195.13
2022-08-17T14:10:58.267Z,101195.88
2022-08-17T14:13:24.826Z,101191.94
2022-08-17T14:15:55.038Z,101183.59
2022-08-17T14:18:34.277Z,101177.19
2022-08-17T14:21:10.204Z,101181.00
2022-08-17T14:23:37.783Z,101180.59
2022-08-17T14:26:04.737Z,101173.09
2022-08-17T14:28:32.076Z,101162.44
2022-08-17T14:30:59.955Z,101165.91
2022-08-17T14:33:28.102Z,101158.69
2022-08-17T14:35:54.812Z,101154.00
2022-08-17T14:38:21.387Z,101156.34
2022-08-17T14:40:48.336Z,101154.66
2022-08-17T14:43:15.805Z,101158.38
2022-08-17T14:45:43.218Z,101162.50
2022-08-17T14:48:10.172Z,101159.06
2022-08-17T14:50:42.265Z,101146.53
2022-08-17T14:53:12.053Z,101150.00
2022-08-17T14:55:40.404Z,101146.31
2022-08-17T14:58:08.724Z,101143.03
2022-08-17T15:00:35.907Z,101138.56
2022-08-17T15:03:03.359Z,101135.63
2022-08-17T15:05:34.132Z,101143.16
2022-08-17T15:08:01.931Z,101140.19
2022-08-17T15:10:29.451Z,101146.19
2022-08-17T15:12:56.377Z,101140.53
2022-08-17T15:15:23.985Z,101140.63
2022-08-17T15:17:51.645Z,101140.13
2022-08-17T15:20:24.836Z,101138.28
2022-08-17T15:22:55.657Z,101153.66
2022-08-17T15:25:23.260Z,101152.63
2022-08-17T15:27:50.226Z,101164.44
2022-08-17T15:30:16.890Z,101156.59
2022-08-17T15:32:45.861Z,101164.81
2022-08-17T15:35:27.288Z,101166.81
2022-08-17T15:37:57.341Z,101170.88
2022-08-17T15:40:25.024Z,101170.53
2022-08-17T15:42:51.634Z,101166.31
2022-08-17T15:45:22.521Z,101166.66
2022-08-17T15:47:49.005Z,101168.13
2022-08-17T15:50:15.572Z,101166.84
2022-08-17T15:52:44.860Z,101166.84
2022-08-17T15:55:13.425Z,101162.81
2022-08-17T15:57:40.602Z,101164.28
2022-08-17T16:00:09.308Z,101161.09
2022-08-17T16:03:15.060Z,101172.84
2022-08-17T16:05:24.973Z,101164.13
2022-08-17T16:07:52.915Z,101164.91
2022-08-17T16:10:20.983Z,101156.59
2022-08-17T16:12:49.089Z,101164.38
2022-08-17T16:15:17.110Z,101161.19
2022-08-17T16:17:43.767Z,101159.44
2022-08-17T16:20:20.579Z,101164.97
2022-08-17T16:22:49.613Z,101156.97
2022-08-17T16:25:21.666Z,101164.75
2022-08-17T16:27:53.383Z,101164.34
2022-08-17T16:30:23.142Z,101162.28
2022-08-17T16:32:53.861Z,101166.72
2022-08-17T16:35:22.472Z,101164.38
2022-08-17T16:37:49.207Z,101162.38
2022-08-17T16:40:16.938Z,101160.84
2022-08-17T16:42:48.361Z,101161.78
2022-08-17T16:45:22.213Z,101164.91
2022-08-17T16:47:50.090Z,101163.25
2022-08-17T16:50:21.032Z,101171.97
2022-08-17T16:52:48.601Z,101174.25
2022-08-17T16:55:18.734Z,101176.19
2022-08-17T16:57:50.080Z,101172.94
2022-08-17T17:00:17.818Z,101182.00
2022-08-17T17:02:47.289Z,101183.28
2022-08-17T17:05:19.959Z,101183.69
2022-08-17T17:07:57.702Z,101184.16
2022-08-17T17:10:37.263Z,101179.84
2022-08-17T17:13:07.635Z,101177.88
2022-08-17T17:15:46.283Z,101170.44
2022-08-17T17:18:15.443Z,101164.19
2022-08-17T17:20:54.597Z,101165.75
2022-08-17T17:23:38.054Z,101174.75
2022-08-17T17:26:17.009Z,101173.19
2022-08-17T17:29:07.999Z,101175.13
2022-08-17T17:31:45.145Z,101178.69
2022-08-17T17:34:16.047Z,101182.63
2022-08-17T17:36:57.842Z,101194.84
2022-08-17T17:39:52.521Z,101197.63
2022-08-17T17:42:22.146Z,101197.28
2022-08-17T17:45:03.466Z,101193.50
2022-08-17T17:47:31.677Z,101192.38
2022-08-17T17:50:00.890Z,101190.91
2022-08-17T17:52:40.954Z,101183.88
2022-08-17T17:55:33.336Z,101178.06
2022-08-17T17:58:19.601Z,101186.34
2022-08-17T18:00:58.212Z,101192.66
2022-08-17T18:03:42.814Z,101193.34
2022-08-17T18:06:18.641Z,101203.97
2022-08-17T18:09:18.157Z,101199.66
2022-08-17T18:12:10.897Z,101213.50
2022-08-17T18:14:55.148Z,101206.81
2022-08-17T18:17:22.170Z,101210.00
2022-08-17T18:19:48.843Z,101211.97
2022-08-17T18:22:18.922Z,101208.03
2022-08-17T18:24:55.839Z,101205.34
2022-08-17T18:27:37.528Z,101205.41
2022-08-17T18:30:13.140Z,101214.91
2022-08-17T18:32:43.599Z,101218.91
2022-08-17T18:35:10.325Z,101224.16
2022-08-17T18:38:20.416Z,101230.13
2022-08-17T18:40:58.088Z,101241.22
2022-08-17T18:43:44.090Z,101233.72
2022-08-17T18:46:28.584Z,101228.22
2022-08-17T18:49:28.226Z,101225.84
2022-08-17T18:52:24.268Z,101234.13
2022-08-17T18:55:23.547Z,101218.47
2022-08-17T18:57:52.864Z,101225.53
2022-08-17T19:00:36.938Z,101218.53
2022-08-17T19:03:18.825Z,101226.53
2022-08-17T19:05:50.876Z,101224.94
2022-08-17T19:08:29.721Z,101233.22
2022-08-17T19:11:26.103Z,101236.41
2022-08-17T19:14:02.063Z,101244.41
2022-08-17T19:16:45.875Z,101252.44
2022-08-17T19:19:32.107Z,101252.13
2022-08-17T19:22:13.680Z,101260.47
2022-08-17T19:24:58.159Z,101269.19
2022-08-17T19:28:01.604Z,101267.19
2022-08-17T19:30:29.994Z,101264.06
2022-08-17T19:32:58.414Z,101269.19
2022-08-17T19:35:39.213Z,101272.78
2022-08-17T19:38:19.937Z,101285.81
2022-08-17T19:41:07.617Z,101289.75
2022-08-17T19:43:37.909Z,101302.75
2022-08-17T19:46:25.912Z,101302.78
2022-08-17T19:48:57.042Z,101315.78
2022-08-17T19:51:40.562Z,101310.25
2022-08-17T19:54:15.056Z,101307.94
2022-08-17T19:56:56.525Z,101311.47
2022-08-17T19:59:48.833Z,101298.88
2022-08-17T20:02:41.946Z,101298.47
2022-08-17T20:05:21.460Z,101297.72
2022-08-17T20:08:08.538Z,101300.09
2022-08-17T20:10:47.370Z,101287.53
2022-08-17T20:13:33.270Z,101289.13
2022-08-17T20:16:01.449Z,101278.47
2022-08-17T20:18:38.061Z,101273.38
2022-08-17T20:21:19.849Z,101274.16
2022-08-17T20:23:58.025Z,101264.31
2022-08-17T20:26:37.222Z,101269.03
2022-08-17T20:29:15.318Z,101258.41
2022-08-17T20:31:54.030Z,101267.06
2022-08-17T20:34:33.684Z,101256.84
2022-08-17T20:37:12.455Z,101256.81
2022-08-17T20:39:42.743Z,101267.47
2022-08-17T20:42:15.423Z,101270.22
2022-08-17T20:44:43.218Z,101268.66
2022-08-17T20:47:27.254Z,101266.69
2022-08-17T20:50:33.541Z,101273.78
2022-08-17T20:53:03.972Z,101264.72
2022-08-17T20:55:52.070Z,101266.69
2022-08-17T20:58:25.194Z,101269.44
2022-08-17T21:00:57.765Z,101268.25
2022-08-17T21:03:24.373Z,101271.81
2022-08-17T21:06:00.422Z,101286.34
2022-08-17T21:08:35.581Z,101298.16
2022-08-17T21:11:58.237Z,101294.59
2022-08-17T21:14:33.223Z,101272.97
2022-08-17T21:17:29.671Z,101275.72
2022-08-17T21:20:12.733Z,101276.88
2022-08-17T21:22:45.375Z,101272.97
2022-08-17T21:25:37.141Z,101284.00
2022-08-17T21:28:21.010Z,101287.53
2022-08-17T21:30:59.171Z,101287.53
2022-08-17T21:33:31.550Z,101297.38
2022-08-17T21:36:11.453Z,101306.84
2022-08-17T21:38:57.402Z,101308.38
2022-08-17T21:41:34.263Z,101319.78
2022-08-17T21:44:30.586Z,101320.53
2022-08-17T21:47:23.632Z,101323.31
2022-08-17T21:49:54.985Z,101326.06
2022-08-17T21:52:24.487Z,101337.09
2022-08-17T21:54:58.511Z,101333.19
2022-08-17T21:57:27.901Z,101331.63
2022-08-17T22:00:01.440Z,101320.97
2022-08-17T22:02:35.057Z,101329.22
2022-08-17T22:05:06.689Z,101326.47
2022-08-17T22:08:21.913Z,101321.38
2022-08-17T22:10:51.277Z,101313.91
2022-08-17T22:13:17.949Z,101311.97
2022-08-17T22:16:29.414Z,101314.31
2022-08-17T22:18:58.823Z,101304.50
2022-08-17T22:21:26.107Z,101308.81
2022-08-17T22:24:24.624Z,101307.66
2022-08-17T22:27:11.479Z,101308.03
2022-08-17T22:29:57.149Z,101314.31
2022-08-17T22:32:51.305Z,101326.94
2022-08-17T22:35:17.740Z,101331.25
2022-08-17T22:37:44.398Z,101338.31
2022-08-17T22:40:24.826Z,101341.50
2022-08-17T22:42:51.625Z,101341.47
2022-08-17T22:45:18.135Z,101333.59
2022-08-17T22:47:48.792Z,101332.84
2022-08-17T22:50:25.932Z,101337.13
2022-08-17T22:53:21.972Z,101335.97
2022-08-17T22:56:13.453Z,101338.34
2022-08-17T22:59:10.804Z,101337.53
2022-08-17T23:01:39.094Z,101339.13
2022-08-17T23:04:27.872Z,101344.22
2022-08-17T23:06:54.327Z,101339.13
2022-08-17T23:09:21.449Z,101343.84
2022-08-17T23:11:52.304Z,101348.94
2022-08-17T23:14:20.570Z,101357.59
2022-08-17T23:16:48.940Z,101355.63
2022-08-17T23:19:19.483Z,101347.75
2022-08-17T23:21:46.326Z,101351.25
2022-08-17T23:24:27.837Z,101347.38
2022-08-17T23:26:57.207Z,101351.28
2022-08-17T23:29:24.910Z,101345.78
2022-08-17T23:31:52.344Z,101352.06
2022-08-17T23:34:19.612Z,101355.19
2022-08-17T23:36:50.670Z,101351.25
2022-08-17T23:39:27.366Z,101340.28
2022-08-17T23:41:56.094Z,101329.66
2022-08-17T23:44:25.470Z,101328.47
2022-08-17T23:46:53.614Z,101331.59
2022-08-17T23:49:20.537Z,101326.91
2022-08-17T23:51:48.207Z,101330.47
2022-08-17T23:54:33.529Z,101341.84
2022-08-17T23:57:04.854Z,101347.72
2022-08-17T23:59:32.892Z,101343.00
